Terminal Aerodrome Forecast
Issued by NWS Paducah, KY

Home | Current Version | Previous Version | Text Only | Print | Product List | Glossary On
Versions: 1 2 3 4 5 6 7 8 9 10 11 12 13 14 15 16 17 18 19 20 21 22
000
FTUS43 KPAH 282300
TAFPAH
TAF
KPAH 282337Z 2900/2924 15008KT P6SM SCT300
     FM290700 20011G18KT P6SM SCT100
     FM291500 29012G20KT P6SM BKN020
     FM292200 32014G24KT P6SM OVC035=

USA.gov is the U.S. government's official web portal to all federal, state and local government web resources and services.